Time;durP1;ratioP1;P1;durP2;ratioP2;P2;SDS_P1;SDS_P2;PMS_P1;PMS_P2;Temp;Humidity;BMP_temperature;BMP_pressure;BME280_temperature;BME280_humidity;BME280_pressure;Samples;Min_cycle;Max_cycle;Signal;HPM_P1;HPM_P2
2021/05/20 00:02:12;;;;;;;0.22;0.20;;;;;;;3.88;81.38;91025.91;4996024;28;20422;-88
2021/05/20 00:04:37;;;;;;;0.20;0.20;;;;;;;3.77;81.98;91022.75;4996894;28;20034;-89
2021/05/20 00:07:03;;;;;;;0.22;0.20;;;;;;;3.76;81.42;91022.00;4996282;28;20360;-89
2021/05/20 00:09:28;;;;;;;0.10;0.10;;;;;;;3.79;81.28;91026.56;4997146;28;20491;-89
2021/05/20 00:11:54;;;;;;;0.32;0.20;;;;;;;3.85;80.83;91029.81;4996646;28;20018;-89
2021/05/20 00:14:19;;;;;;;0.50;0.20;;;;;;;3.61;81.48;91024.81;4996806;28;20025;-89
2021/05/20 00:16:45;;;;;;;0.15;0.10;;;;;;;3.51;82.06;91015.44;4996193;28;20017;-90
2021/05/20 00:19:10;;;;;;;1.30;0.45;;;;;;;3.46;82.47;91023.22;4996603;28;20029;-88
2021/05/20 00:21:35;;;;;;;0.52;0.20;;;;;;;3.56;81.64;91027.47;5012766;28;20018;-89
2021/05/20 00:24:01;;;;;;;0.40;0.20;;;;;;;3.53;81.55;91023.66;4996263;28;20059;-89
2021/05/20 00:26:26;;;;;;;0.30;0.22;;;;;;;3.53;81.96;91033.19;5012769;28;20037;-90
2021/05/20 00:28:52;;;;;;;0.25;0.17;;;;;;;3.47;82.09;91019.63;5012801;28;20493;-88
2021/05/20 00:31:17;;;;;;;0.40;0.20;;;;;;;3.32;82.64;91023.22;5012444;28;20464;-89
2021/05/20 00:33:43;;;;;;;0.20;0.10;;;;;;;3.38;82.19;91026.44;5012285;28;20464;-90
2021/05/20 00:36:08;;;;;;;0.40;0.25;;;;;;;3.41;81.91;91023.31;4996464;28;20034;-89
2021/05/20 00:38:34;;;;;;;0.63;0.30;;;;;;;3.38;82.09;91021.28;5012384;28;20018;-88
2021/05/20 00:40:59;;;;;;;0.30;0.10;;;;;;;3.36;82.47;91025.97;4995658;28;20464;-89
2021/05/20 00:43:25;;;;;;;0.57;0.28;;;;;;;3.27;83.02;91030.22;4996017;28;20026;-90
2021/05/20 00:45:51;;;;;;;0.45;0.20;;;;;;;3.30;82.13;91025.28;5012468;28;20189;-89
2021/05/20 00:48:16;;;;;;;1.58;0.32;;;;;;;3.43;81.46;91025.59;4995816;28;20026;-89
2021/05/20 00:50:42;;;;;;;1.05;0.20;;;;;;;3.50;81.68;91031.94;4995656;28;20080;-88
2021/05/20 00:53:07;;;;;;;0.45;0.20;;;;;;;3.54;81.40;91027.00;4995675;28;20049;-89
2021/05/20 00:55:35;;;;;;;0.47;0.20;;;;;;;3.48;82.27;91021.16;4995577;28;20391;-89
2021/05/20 00:58:00;;;;;;;1.42;0.25;;;;;;;3.59;81.11;91032.81;4995953;28;20038;-89
2021/05/20 01:00:26;;;;;;;0.30;0.20;;;;;;;3.57;82.08;91021.28;4995729;28;20036;-89
2021/05/20 01:02:51;;;;;;;0.35;0.28;;;;;;;3.46;82.65;91017.31;4995828;28;20460;-89
2021/05/20 01:05:16;;;;;;;0.40;0.30;;;;;;;3.57;82.11;91029.78;4977011;28;20052;-89
2021/05/20 01:07:42;;;;;;;0.40;0.30;;;;;;;3.74;81.46;91024.06;4976271;28;20045;-89
2021/05/20 01:10:08;;;;;;;0.60;0.30;;;;;;;3.80;81.23;91030.69;4976269;28;20033;-89
2021/05/20 01:12:33;;;;;;;0.70;0.22;;;;;;;3.70;82.12;91032.66;4976484;28;20120;-90
2021/05/20 01:14:59;;;;;;;0.52;0.20;;;;;;;3.76;82.19;91032.28;4959998;28;20074;-87
2021/05/20 01:17:25;;;;;;;0.40;0.30;;;;;;;3.87;82.50;91037.28;4975852;28;20027;-89
2021/05/20 01:19:51;;;;;;;0.55;0.30;;;;;;;3.77;82.74;91028.66;4960260;28;20018;-89
2021/05/20 01:22:16;;;;;;;0.68;0.30;;;;;;;3.79;83.16;91031.75;4959475;28;20502;-89
2021/05/20 01:24:42;;;;;;;1.00;0.32;;;;;;;3.89;82.79;91028.22;4959850;28;20125;-86
2021/05/20 01:27:08;;;;;;;0.70;0.40;;;;;;;3.92;82.52;91026.88;4975786;28;20057;-89
2021/05/20 01:29:34;;;;;;;0.43;0.35;;;;;;;3.80;83.32;91035.84;4959833;28;20023;-89
2021/05/20 01:32:00;;;;;;;0.88;0.40;;;;;;;3.77;84.26;91036.41;4959559;28;20395;-89
2021/05/20 01:34:25;;;;;;;3.00;0.40;;;;;;;3.71;84.53;91029.03;4959706;28;20026;-89
2021/05/20 01:36:50;;;;;;;0.25;0.20;;;;;;;3.68;84.62;91035.53;4959924;28;20125;-88
2021/05/20 01:39:16;;;;;;;1.05;0.28;;;;;;;3.73;84.44;91032.84;4959708;28;20022;-89
2021/05/20 01:41:41;;;;;;;0.98;0.20;;;;;;;3.74;85.25;91033.63;4959737;28;20114;-88
2021/05/20 01:44:07;;;;;;;0.70;0.40;;;;;;;3.78;85.19;91034.56;4959722;28;20033;-89
2021/05/20 01:46:32;;;;;;;0.25;0.22;;;;;;;3.73;85.41;91038.00;4975537;28;20045;-89
2021/05/20 01:48:58;;;;;;;1.05;0.20;;;;;;;3.82;84.45;91046.63;4975718;28;20018;-89
2021/05/20 01:51:23;;;;;;;1.27;0.25;;;;;;;3.77;83.32;91043.38;4959675;28;20037;-89
2021/05/20 01:53:51;;;;;;;1.02;0.20;;;;;;;3.77;82.92;91038.97;4975818;28;20030;-88
2021/05/20 01:56:18;;;;;;;0.20;0.20;;;;;;;3.82;82.77;91045.88;4959940;28;20053;-88
2021/05/20 01:58:43;;;;;;;0.32;0.10;;;;;;;3.82;81.96;91049.22;4976219;23;20054;-87
2021/05/20 02:01:09;;;;;;;0.10;0.10;;;;;;;3.81;80.90;91050.25;4919764;29;20121;-87
2021/05/20 02:03:35;;;;;;;0.20;0.05;;;;;;;3.71;80.68;91049.66;4936309;29;20023;-88
2021/05/20 02:06:03;;;;;;;0.08;0.00;;;;;;;3.51;82.15;91048.16;4923845;29;20023;-88
2021/05/20 02:08:30;;;;;;;0.05;0.00;;;;;;;3.32;81.63;91048.97;4940188;28;20023;-87
2021/05/20 02:10:55;;;;;;;0.10;0.10;;;;;;;3.33;83.17;91047.16;4939352;29;20038;-87
2021/05/20 02:13:21;;;;;;;0.10;0.00;;;;;;;3.34;83.64;91054.59;4939550;29;20087;-87
2021/05/20 02:15:46;;;;;;;0.70;0.00;;;;;;;3.32;82.85;91054.13;4939597;29;20031;-87
2021/05/20 02:18:12;;;;;;;0.22;0.00;;;;;;;3.24;82.41;91044.44;4956381;28;20477;-87
2021/05/20 02:20:37;;;;;;;0.00;0.00;;;;;;;3.25;83.00;91043.41;4939325;29;20027;-87
2021/05/20 02:23:03;;;;;;;0.00;0.00;;;;;;;3.25;82.54;91053.69;4923650;29;20023;-87
2021/05/20 02:25:28;;;;;;;0.00;0.00;;;;;;;3.19;83.55;91044.50;4939458;29;20030;-87
2021/05/20 02:27:54;;;;;;;0.10;0.05;;;;;;;3.16;84.28;91044.31;4955343;28;20019;-87
2021/05/20 02:30:19;;;;;;;0.38;0.00;;;;;;;3.17;83.80;91044.00;4954821;29;20027;-87
2021/05/20 02:32:45;;;;;;;0.10;0.10;;;;;;;3.29;84.35;91038.44;4923174;29;20058;-88
2021/05/20 02:35:11;;;;;;;0.00;0.00;;;;;;;3.34;83.09;91036.56;4939223;29;20023;-86
2021/05/20 02:37:36;;;;;;;0.00;0.00;;;;;;;3.34;83.89;91036.56;4971251;28;20062;-87
2021/05/20 02:40:03;;;;;;;0.00;0.00;;;;;;;3.37;84.95;91035.25;4939226;29;20078;-87
2021/05/20 02:42:29;;;;;;;0.00;0.00;;;;;;;3.31;84.92;91041.50;4922629;29;20034;-89
2021/05/20 02:44:54;;;;;;;0.00;0.00;;;;;;;3.30;85.08;91038.16;4971288;28;20042;-87
2021/05/20 02:47:20;;;;;;;0.10;0.00;;;;;;;3.31;85.39;91034.53;4971094;28;20031;-87
2021/05/20 02:49:45;;;;;;;0.00;0.00;;;;;;;3.25;84.69;91038.25;4938728;29;20477;-87
2021/05/20 02:52:11;;;;;;;0.00;0.00;;;;;;;3.17;85.24;91050.97;4922807;29;20055;-86
2021/05/20 02:54:37;;;;;;;0.00;0.00;;;;;;;3.25;84.62;91047.75;4923037;29;20023;-87
2021/05/20 02:57:03;;;;;;;0.10;0.10;;;;;;;3.24;85.12;91044.44;4922627;29;20027;-87
2021/05/20 02:59:29;;;;;;;0.10;0.10;;;;;;;3.29;83.78;91048.75;4937762;29;20110;-87
2021/05/20 03:02:02;;;;;;;0.00;0.00;;;;;;;3.25;84.60;91043.41;4970041;28;20035;-87
2021/05/20 03:04:27;;;;;;;0.10;0.10;;;;;;;3.30;85.94;91038.16;4965649;28;20028;-87
2021/05/20 03:06:53;;;;;;;0.30;0.10;;;;;;;3.29;86.30;91039.22;4951540;29;20031;-87
2021/05/20 03:09:18;;;;;;;0.55;0.17;;;;;;;3.31;86.46;91039.69;4951335;28;20462;-87
2021/05/20 03:11:44;;;;;;;0.75;0.10;;;;;;;3.30;86.13;91045.88;4935181;29;20031;-87
2021/05/20 03:14:09;;;;;;;0.05;0.00;;;;;;;3.27;85.88;91041.28;4935447;29;20027;-87
2021/05/20 03:16:34;;;;;;;0.63;0.10;;;;;;;3.31;85.98;91047.41;4919505;29;20132;-87
2021/05/20 03:19:00;;;;;;;0.82;0.30;;;;;;;3.32;85.62;91043.03;4935234;29;20075;-87
2021/05/20 03:21:26;;;;;;;0.32;0.10;;;;;;;3.29;85.76;91048.75;4935096;29;20469;-87
2021/05/20 03:23:52;;;;;;;0.10;0.10;;;;;;;3.33;85.60;91049.72;4951238;29;20047;-87
2021/05/20 03:26:17;;;;;;;1.30;0.17;;;;;;;3.27;85.98;91049.03;4950955;29;20611;-87
2021/05/20 03:28:43;;;;;;;0.10;0.10;;;;;;;3.33;86.09;91055.63;4950782;28;20028;-88
2021/05/20 03:31:08;;;;;;;0.20;0.10;;;;;;;3.35;85.98;91050.19;4936064;29;20378;-87
2021/05/20 03:33:34;;;;;;;0.08;0.08;;;;;;;3.32;85.70;91059.28;4935219;29;20032;-87
2021/05/20 03:35:59;;;;;;;0.30;0.20;;;;;;;3.32;86.54;91054.13;4934997;29;20036;-87
2021/05/20 03:38:24;;;;;;;0.10;0.10;;;;;;;3.40;86.38;91057.09;4919087;29;20024;-87
2021/05/20 03:40:50;;;;;;;0.00;0.00;;;;;;;3.37;86.18;91060.22;4950661;29;20055;-87
2021/05/20 03:43:15;;;;;;;0.30;0.10;;;;;;;3.35;86.27;91057.91;4934769;29;20058;-88
2021/05/20 03:45:41;;;;;;;0.10;0.10;;;;;;;3.44;86.15;91058.84;4950491;29;20055;-87
2021/05/20 03:48:06;;;;;;;0.30;0.10;;;;;;;3.53;85.58;91058.94;4934545;29;20470;-88
2021/05/20 03:50:32;;;;;;;0.10;0.10;;;;;;;3.38;86.90;91061.75;4966433;28;20081;-87
2021/05/20 03:53:00;;;;;;;0.88;0.20;;;;;;;3.39;86.87;91063.28;4934576;29;20053;-87
2021/05/20 03:55:26;;;;;;;0.10;0.10;;;;;;;3.40;86.47;91067.41;4934695;29;20052;-87
2021/05/20 03:57:51;;;;;;;0.20;0.20;;;;;;;3.40;86.40;91064.84;4934541;29;20024;-85
2021/05/20 04:00:17;;;;;;;0.22;0.15;;;;;;;3.40;86.51;91069.97;4950297;29;20023;-88
2021/05/20 04:02:42;;;;;;;0.15;0.10;;;;;;;3.37;86.50;91080.84;4950247;29;20458;-87
2021/05/20 04:05:08;;;;;;;0.17;0.10;;;;;;;3.43;86.59;91074.56;4951704;29;20023;-87
2021/05/20 04:07:34;;;;;;;0.15;0.10;;;;;;;3.47;86.46;91080.69;4953833;29;20027;-87
2021/05/20 04:09:59;;;;;;;1.45;0.10;;;;;;;3.49;86.60;91070.88;4953293;28;20035;-87
2021/05/20 04:12:25;;;;;;;0.35;0.20;;;;;;;3.40;87.00;91078.47;4953187;29;20027;-87
2021/05/20 04:14:50;;;;;;;0.25;0.15;;;;;;;3.41;87.28;91081.81;4969558;28;20027;-87
2021/05/20 04:17:15;;;;;;;12.07;6.47;;;;;;;3.44;87.64;91083.84;4954667;29;20027;-88
2021/05/20 04:19:41;;;;;;;4.32;2.55;;;;;;;3.43;87.34;91080.50;4969413;28;20030;-87
2021/05/20 04:22:06;;;;;;;3.13;2.00;;;;;;;3.49;86.96;91083.75;4953123;29;20027;-87
2021/05/20 04:24:32;;;;;;;2.10;1.70;;;;;;;3.48;86.85;91089.94;4953285;29;20027;-87
2021/05/20 04:26:57;;;;;;;1.13;1.00;;;;;;;3.52;87.18;91081.38;4936738;29;20031;-87
2021/05/20 04:29:22;;;;;;;0.28;0.20;;;;;;;3.57;87.16;91090.88;4969192;28;20378;-88
2021/05/20 04:31:48;;;;;;;0.45;0.30;;;;;;;3.67;86.65;91085.53;4968847;28;20019;-88
2021/05/20 04:34:13;;;;;;;0.30;0.30;;;;;;;3.69;86.24;91088.59;4969248;28;20023;-87
2021/05/20 04:36:39;;;;;;;0.30;0.25;;;;;;;3.76;85.64;91094.16;4953400;29;20354;-87
2021/05/20 04:39:04;;;;;;;1.25;0.30;;;;;;;3.79;85.72;91090.25;4968977;28;20026;-87
2021/05/20 04:41:31;;;;;;;0.35;0.30;;;;;;;4.02;85.12;91091.19;4936998;29;20113;-87
2021/05/20 04:43:57;;;;;;;0.57;0.30;;;;;;;4.01;84.76;91090.41;4921945;29;20114;-87
2021/05/20 04:46:22;;;;;;;0.20;0.17;;;;;;;4.04;85.50;91097.59;4937452;29;20074;-87
2021/05/20 04:48:48;;;;;;;0.63;0.30;;;;;;;4.02;84.78;91096.34;4953444;28;20071;-87
2021/05/20 04:51:14;;;;;;;0.32;0.20;;;;;;;4.13;84.26;91099.50;4920851;29;20023;-87
2021/05/20 04:53:40;;;;;;;0.30;0.20;;;;;;;4.21;84.03;91102.22;4952901;29;20027;-86
2021/05/20 04:56:06;;;;;;;0.20;0.20;;;;;;;4.24;85.01;91103.44;4921131;29;20049;-87
2021/05/20 04:58:31;;;;;;;0.98;0.38;;;;;;;4.37;86.42;91094.97;4920874;29;20461;-87
2021/05/20 05:00:57;;;;;;;0.60;0.30;;;;;;;4.52;85.26;91110.19;4952414;29;20107;-87
2021/05/20 05:03:22;;;;;;;0.20;0.20;;;;;;;4.67;84.13;91105.81;4952708;29;20030;-87
2021/05/20 05:05:48;;;;;;;0.15;0.13;;;;;;;4.72;83.85;91103.88;4952723;29;20473;-87
2021/05/20 05:08:13;;;;;;;0.50;0.30;;;;;;;4.65;83.80;91108.66;4920787;29;20034;-87
2021/05/20 05:10:38;;;;;;;0.38;0.30;;;;;;;4.65;85.20;91113.81;4936496;29;20030;-86
2021/05/20 05:13:04;;;;;;;0.43;0.38;;;;;;;4.63;84.06;91110.78;4936553;29;20027;-87
2021/05/20 05:15:29;;;;;;;0.50;0.30;;;;;;;4.67;82.59;91110.97;4936552;29;20027;-88
2021/05/20 05:17:55;;;;;;;0.50;0.20;;;;;;;4.64;82.35;91116.69;4936409;28;20481;-88
2021/05/20 05:20:21;;;;;;;0.20;0.20;;;;;;;4.67;81.58;91111.72;4936191;29;20496;-87
2021/05/20 05:22:46;;;;;;;0.30;0.20;;;;;;;4.66;81.68;91115.34;4919430;29;20492;-87
2021/05/20 05:25:11;;;;;;;0.10;0.10;;;;;;;4.69;81.75;91124.34;4920629;29;20023;-86
2021/05/20 05:27:37;;;;;;;0.43;0.20;;;;;;;4.67;81.10;91116.13;4920486;28;20027;-87
2021/05/20 05:30:03;;;;;;;0.43;0.20;;;;;;;4.66;81.47;91124.91;4936080;29;20023;-87
2021/05/20 05:32:29;;;;;;;0.22;0.20;;;;;;;4.71;80.77;91128.16;4936168;29;20023;-87
2021/05/20 05:34:54;;;;;;;0.43;0.30;;;;;;;4.78;82.31;91128.56;4952419;29;20023;-88
2021/05/20 05:37:19;;;;;;;2.60;0.30;;;;;;;4.97;82.07;91138.00;4920391;28;20031;-87
2021/05/20 05:39:45;;;;;;;3.13;0.20;;;;;;;5.16;81.19;91137.91;4954639;28;20058;-87
2021/05/20 05:42:10;;;;;;;0.50;0.28;;;;;;;5.11;78.74;91135.44;4971719;28;20464;-87
2021/05/20 05:44:36;;;;;;;0.40;0.30;;;;;;;5.26;79.13;91137.69;4956703;29;20047;-87
2021/05/20 05:47:01;;;;;;;0.20;0.20;;;;;;;5.26;80.03;91143.66;4956103;29;20019;-88
2021/05/20 05:49:29;;;;;;;0.55;0.20;;;;;;;5.08;79.61;91141.94;4956093;28;20381;-87
2021/05/20 05:51:58;;;;;;;0.20;0.20;;;;;;;5.18;79.50;91136.56;4924510;29;20019;-88
2021/05/20 05:54:24;;;;;;;0.70;0.20;;;;;;;5.18;79.83;91140.97;4957119;29;20095;-87
2021/05/20 05:56:49;;;;;;;0.20;0.20;;;;;;;5.30;78.25;91143.84;4923861;29;20023;-87
2021/05/20 05:59:15;;;;;;;0.22;0.20;;;;;;;5.36;77.88;91140.06;4939809;29;20034;-88
2021/05/20 06:01:40;;;;;;;0.30;0.20;;;;;;;5.52;77.81;91150.88;4923687;29;20023;-86
2021/05/20 06:04:08;;;;;;;0.20;0.20;;;;;;;5.65;78.82;91137.13;4936425;29;20026;-87
2021/05/20 06:06:33;;;;;;;0.68;0.50;;;;;;;5.90;78.99;91140.22;4936295;29;20031;-87
2021/05/20 06:08:59;;;;;;;0.25;0.20;;;;;;;5.90;78.13;91145.38;4920578;29;20385;-87
2021/05/20 06:11:24;;;;;;;2.00;0.60;;;;;;;6.01;77.86;91146.75;4920302;29;20016;-87
2021/05/20 06:13:49;;;;;;;0.50;0.22;;;;;;;6.19;76.30;91147.63;4936433;29;20019;-87
2021/05/20 06:16:15;;;;;;;0.95;0.22;;;;;;;6.21;76.20;91145.47;4920587;29;20035;-88
2021/05/20 06:18:40;;;;;;;0.88;0.30;;;;;;;6.16;74.77;91143.78;4936338;29;20042;-86
2021/05/20 06:21:05;;;;;;;1.48;0.30;;;;;;;6.35;73.63;91150.59;4920159;29;20381;-87
2021/05/20 06:23:31;;;;;;;1.38;0.43;;;;;;;6.38;73.95;91155.19;4920608;29;20027;-87
2021/05/20 06:25:56;;;;;;;0.30;0.22;;;;;;;6.28;73.57;91148.41;4936255;29;20027;-87
2021/05/20 06:28:23;;;;;;;1.48;0.20;;;;;;;6.22;75.10;91158.16;4920209;29;20020;-87
2021/05/20 06:30:48;;;;;;;0.30;0.20;;;;;;;6.34;73.49;91154.25;4936050;29;20462;-87
2021/05/20 06:33:15;;;;;;;1.20;0.25;;;;;;;6.33;74.11;91160.50;4952169;29;20037;-87
2021/05/20 06:35:41;;;;;;;0.77;0.40;;;;;;;6.29;74.10;91162.13;4920708;29;20031;-86
2021/05/20 06:38:06;;;;;;;0.88;0.40;;;;;;;6.14;75.53;91165.84;4920246;29;20027;-88
2021/05/20 06:40:31;;;;;;;1.95;0.38;;;;;;;6.13;75.79;91166.91;4935761;29;20042;-87
2021/05/20 06:42:57;;;;;;;0.52;0.40;;;;;;;6.07;73.51;91168.81;4935811;29;20024;-88
2021/05/20 06:45:22;;;;;;;0.80;0.45;;;;;;;6.23;74.03;91167.44;4935975;29;20019;-88
2021/05/20 06:47:52;;;;;;;0.75;0.45;;;;;;;6.25;73.26;91171.53;4951932;29;20102;-88
2021/05/20 06:50:18;;;;;;;0.50;0.30;;;;;;;6.37;72.72;91169.97;4951195;28;20367;-88
2021/05/20 06:52:43;;;;;;;0.50;0.20;;;;;;;6.52;73.02;91171.41;4935801;29;20474;-87
2021/05/20 06:55:09;;;;;;;0.43;0.30;;;;;;;6.63;74.29;91172.69;4935726;29;20016;-87
2021/05/20 07:00:18;;;;;;;0.50;0.40;;;;;;;6.82;71.89;91176.88;4935746;29;20035;-87
2021/05/20 07:02:46;;;;;;;0.70;0.40;;;;;;;6.95;70.88;91176.78;4935803;29;20015;-87
2021/05/20 07:05:12;;;;;;;2.03;0.50;;;;;;;6.99;70.71;91182.13;4936945;29;20643;-86
2021/05/20 07:07:38;;;;;;;0.75;0.63;;;;;;;6.92;71.51;91184.41;4935508;29;20118;-87
2021/05/20 07:10:05;;;;;;;0.30;0.30;;;;;;;6.82;72.54;91189.84;4935587;29;20027;-86
2021/05/20 07:12:30;;;;;;;1.23;0.50;;;;;;;6.54;73.96;91189.25;4951283;29;20030;-87
2021/05/20 07:14:57;;;;;;;0.80;0.40;;;;;;;6.06;71.23;91189.84;4935418;29;20417;-87
2021/05/20 07:17:23;;;;;;;1.05;0.60;;;;;;;6.14;74.16;91191.72;4935197;29;20034;-87
2021/05/20 07:19:48;;;;;;;0.45;0.38;;;;;;;6.09;73.83;91195.19;4935090;29;20370;-87
2021/05/20 07:22:14;;;;;;;0.50;0.32;;;;;;;6.06;75.13;91200.19;4934876;29;20027;-87
2021/05/20 07:24:40;;;;;;;1.17;0.30;;;;;;;6.10;75.88;91201.13;4935326;29;20378;-87
2021/05/20 07:27:05;;;;;;;0.50;0.38;;;;;;;6.17;75.22;91212.59;4935102;29;20035;-87
2021/05/20 07:29:31;;;;;;;0.30;0.20;;;;;;;6.10;75.50;91214.81;4934803;29;20079;-87
2021/05/20 07:31:56;;;;;;;0.95;0.30;;;;;;;5.97;76.13;91219.00;4935708;29;20046;-88
2021/05/20 07:34:22;;;;;;;0.68;0.38;;;;;;;6.02;76.43;91225.88;4935720;29;20035;-87
2021/05/20 07:36:47;;;;;;;0.47;0.20;;;;;;;5.88;75.16;91219.94;4935706;29;20026;-86
2021/05/20 07:39:12;;;;;;;0.50;0.10;;;;;;;5.70;72.33;91224.97;4935354;29;20024;-87
2021/05/20 07:41:39;;;;;;;2.40;0.20;;;;;;;5.69;75.63;91212.34;4904450;29;20030;-87
2021/05/20 07:44:06;;;;;;;0.30;0.30;;;;;;;5.74;74.71;91219.97;4919752;29;20019;-87
2021/05/20 07:46:32;;;;;;;0.10;0.10;;;;;;;5.90;73.67;91225.56;4919762;29;20024;-86
2021/05/20 07:48:57;;;;;;;0.25;0.20;;;;;;;6.09;74.12;91226.25;4919403;29;20035;-86
2021/05/20 07:51:23;;;;;;;0.20;0.20;;;;;;;5.96;72.95;91221.84;4919663;29;20022;-88
2021/05/20 07:53:48;;;;;;;0.60;0.30;;;;;;;6.08;75.83;91224.72;4919612;29;20363;-87
2021/05/20 07:56:14;;;;;;;0.98;0.32;;;;;;;6.30;72.05;91228.38;4920107;29;20015;-87
2021/05/20 07:58:39;;;;;;;0.55;0.30;;;;;;;6.13;72.36;91216.81;4967623;23;20041;-88
2021/05/20 08:01:04;;;;;;;0.25;0.20;;;;;;;6.25;73.22;91213.72;4981100;28;20502;-88
2021/05/20 08:03:44;;;;;;;0.80;0.30;;;;;;;6.45;73.32;91210.66;4998204;28;20034;-87
2021/05/20 08:06:16;;;;;;;1.00;0.80;;;;;;;6.61;72.34;91216.25;4985094;28;20097;-87
2021/05/20 08:11:13;;;;;;;1.63;0.90;;;;;;;6.74;75.55;91214.63;5014108;28;20025;-87
2021/05/20 08:13:39;;;;;;;2.63;1.05;;;;;;;6.99;71.77;91204.69;4982093;28;20352;-87
2021/05/20 08:16:05;;;;;;;1.05;0.80;;;;;;;6.83;72.35;91201.75;4997920;28;20018;-88
2021/05/20 08:18:30;;;;;;;0.80;0.70;;;;;;;6.45;74.11;91210.66;4981943;28;20400;-87
2021/05/20 08:20:56;;;;;;;0.70;0.50;;;;;;;6.47;73.21;91213.72;4982644;28;20029;-88
2021/05/20 08:23:22;;;;;;;0.70;0.60;;;;;;;6.43;74.20;91209.41;4981745;28;20419;-88
2021/05/20 08:25:47;;;;;;;0.68;0.50;;;;;;;6.46;74.08;91214.75;4981759;28;20025;-87
2021/05/20 08:28:13;;;;;;;1.40;0.70;;;;;;;6.62;72.33;91201.47;4982087;28;20079;-88
2021/05/20 08:30:38;;;;;;;1.30;0.82;;;;;;;6.68;71.91;91215.84;4982164;28;20025;-87
2021/05/20 08:33:04;;;;;;;1.17;0.65;;;;;;;6.58;72.25;91222.03;4981605;28;20025;-87
2021/05/20 08:35:29;;;;;;;0.82;0.60;;;;;;;6.71;71.03;91204.84;5014484;28;20084;-88
2021/05/20 08:37:54;;;;;;;1.20;0.80;;;;;;;6.88;74.38;91206.78;4982008;28;20024;-88
2021/05/20 08:40:20;;;;;;;1.33;0.98;;;;;;;7.09;72.60;91205.19;4981492;28;20561;-88
2021/05/20 08:42:45;;;;;;;2.40;1.15;;;;;;;7.35;72.81;91207.13;4981998;28;20048;-88
2021/05/20 08:45:16;;;;;;;1.38;1.08;;;;;;;7.79;71.43;91203.56;4998866;28;20137;-86
2021/05/20 08:47:42;;;;;;;1.80;1.30;;;;;;;7.58;70.59;91200.78;4981637;28;20044;-87
2021/05/20 08:50:08;;;;;;;1.85;1.42;;;;;;;7.63;70.31;91211.03;4981028;28;20021;-88
2021/05/20 08:52:36;;;;;;;2.55;1.50;;;;;;;7.61;70.23;91205.38;4997841;28;20029;-87
2021/05/20 08:55:02;;;;;;;1.58;1.25;;;;;;;7.63;69.18;91198.06;4981483;28;20022;-88
2021/05/20 08:57:27;;;;;;;2.60;1.10;;;;;;;7.03;69.24;91206.41;4981571;28;20491;-88
2021/05/20 08:59:53;;;;;;;1.58;1.20;;;;;;;7.57;70.74;91212.22;4980571;28;20181;-88
2021/05/20 09:02:23;;;;;;;1.60;1.20;;;;;;;7.64;70.30;91206.59;4990630;28;20029;-91
2021/05/20 09:05:09;;;;;;;3.38;1.00;;;;;;;7.71;68.69;91219.13;5005646;28;20026;-88
2021/05/20 09:07:36;;;;;;;1.10;0.80;;;;;;;7.41;69.54;91213.69;4997212;28;20025;-87
2021/05/20 09:10:21;;;;;;;1.40;0.88;;;;;;;7.27;69.70;91226.00;4980713;28;20018;-88
2021/05/20 09:12:56;;;;;;;1.50;1.00;;;;;;;6.89;70.81;91213.47;5012841;28;20026;-87
2021/05/20 09:15:30;;;;;;;1.05;0.82;;;;;;;6.77;71.79;91221.81;4982309;28;20025;-87
2021/05/20 09:18:25;;;;;;;1.60;0.80;;;;;;;6.79;71.62;91216.34;4980954;28;20542;-88
2021/05/20 09:20:52;;;;;;;1.10;0.88;;;;;;;6.78;70.83;91220.75;5011132;28;20071;-87
2021/05/20 09:23:25;;;;;;;0.95;0.80;;;;;;;7.03;72.11;91231.53;4981037;28;20026;-87
2021/05/20 09:25:52;;;;;;;1.50;0.90;;;;;;;7.01;71.12;91221.47;4980778;28;20033;-87
2021/05/20 09:28:29;;;;;;;2.40;0.77;;;;;;;7.28;71.80;91222.34;4996642;28;20036;-87
2021/05/20 09:30:55;;;;;;;1.10;0.90;;;;;;;7.10;71.71;91234.47;4983068;28;20041;-86
2021/05/20 09:33:20;;;;;;;2.55;2.00;;;;;;;7.45;72.89;91227.59;4980773;28;20459;-88
2021/05/20 09:35:49;;;;;;;1.30;0.90;;;;;;;7.35;70.87;91213.09;4980007;28;20471;-88
2021/05/20 09:38:21;;;;;;;1.35;1.00;;;;;;;7.38;71.24;91216.88;4980732;28;20495;-87
2021/05/20 09:40:56;;;;;;;1.33;1.00;;;;;;;7.64;69.27;91225.53;4979824;28;20080;-88
2021/05/20 09:43:23;;;;;;;1.48;1.10;;;;;;;7.54;71.20;91223.19;4996574;28;20050;-88
2021/05/20 09:45:52;;;;;;;1.95;1.10;;;;;;;7.32;72.32;91223.28;4996237;28;20459;-88
2021/05/20 09:48:33;;;;;;;1.10;0.90;;;;;;;7.35;70.29;91222.66;4979963;28;20034;-88
2021/05/20 09:50:59;;;;;;;1.30;0.90;;;;;;;7.23;70.58;91217.31;5012672;28;20026;-87
2021/05/20 09:53:26;;;;;;;1.00;0.85;;;;;;;7.14;69.79;91217.28;4980452;28;20028;-87
2021/05/20 09:55:54;;;;;;;1.75;1.23;;;;;;;7.33;68.13;91217.78;4980058;28;20018;-87
2021/05/20 09:58:26;;;;;;;1.67;1.10;;;;;;;7.45;70.38;91222.41;4980864;28;20113;-86
2021/05/20 10:00:52;;;;;;;5.40;1.30;;;;;;;7.54;69.35;91223.19;4997427;28;20049;-87
2021/05/20 10:03:19;;;;;;;2.38;1.50;;;;;;;7.76;68.98;91222.34;4980717;28;20057;-87
2021/05/20 10:05:59;;;;;;;2.25;1.27;;;;;;;7.69;68.75;91216.81;4982150;28;20053;-87
2021/05/20 10:08:26;;;;;;;2.45;1.30;;;;;;;7.59;67.92;91215.28;4981177;28;20049;-87
2021/05/20 10:10:52;;;;;;;3.13;1.17;;;;;;;7.70;66.17;91218.34;4979765;28;20026;-89
2021/05/20 10:13:25;;;;;;;2.20;0.90;;;;;;;7.90;68.14;91224.78;4981149;28;20468;-87
2021/05/20 10:15:51;;;;;;;1.33;0.80;;;;;;;7.85;69.00;91215.34;4981020;28;20026;-87
2021/05/20 10:18:21;;;;;;;1.38;1.00;;;;;;;7.66;69.07;91215.59;4985251;28;20064;-87
2021/05/20 10:20:48;;;;;;;1.60;0.90;;;;;;;8.01;66.49;91212.28;4987333;28;20026;-88
2021/05/20 10:23:21;;;;;;;1.20;0.98;;;;;;;8.14;70.16;91209.56;4981695;28;20502;-87
2021/05/20 10:25:48;;;;;;;1.05;0.95;;;;;;;8.67;70.68;91217.34;4982044;28;20025;-87
2021/05/20 10:28:14;;;;;;;3.03;1.20;;;;;;;8.84;68.72;91225.13;4999167;28;20056;-87
2021/05/20 10:30:41;;;;;;;1.15;0.80;;;;;;;9.01;63.76;91211.28;4999777;28;20472;-86
2021/05/20 10:33:07;;;;;;;1.40;1.20;;;;;;;9.01;66.75;91200.91;4983300;28;20022;-88
2021/05/20 10:35:46;;;;;;;1.40;1.00;;;;;;;9.24;62.76;91209.25;4999690;28;20018;-88
2021/05/20 10:38:32;;;;;;;0.90;0.80;;;;;;;9.44;62.63;91205.19;4983446;28;20084;-87
2021/05/20 10:41:11;;;;;;;1.00;0.60;;;;;;;9.57;61.55;91212.00;5018291;28;20109;-87
2021/05/20 10:43:40;;;;;;;0.65;0.60;;;;;;;9.12;58.17;91206.53;4999037;28;20021;-88
2021/05/20 10:46:06;;;;;;;1.23;0.60;;;;;;;9.27;61.60;91214.59;5015582;28;20438;-86
2021/05/20 10:48:33;;;;;;;1.30;0.55;;;;;;;9.16;61.93;91197.03;4999087;28;20132;-88
2021/05/20 10:51:05;;;;;;;0.73;0.60;;;;;;;9.43;63.07;91207.00;4982952;28;20065;-87
2021/05/20 10:53:40;;;;;;;1.35;0.52;;;;;;;9.40;62.45;91212.88;5015106;28;20022;-88
2021/05/20 10:56:05;;;;;;;;;;;;;;;9.12;61.42;91215.09;5016665;28;20447;-88
2021/05/20 10:58:32;;;;;;;0.65;0.50;;;;;;;9.39;61.17;91203.50;5015084;28;19948;-88
2021/05/20 11:00:57;;;;;;;0.90;0.60;;;;;;;8.78;59.66;91193.31;4982693;28;20049;-87
2021/05/20 11:03:57;;;;;;;1.10;0.70;;;;;;;9.11;60.66;91200.56;4982842;28;20022;-87
2021/05/20 11:06:24;;;;;;;0.73;0.60;;;;;;;9.13;61.48;91202.88;4998934;28;20029;-87
2021/05/20 11:08:49;;;;;;;0.57;0.50;;;;;;;9.27;58.56;91195.63;4982491;28;20068;-88
2021/05/20 11:11:43;;;;;;;1.38;0.70;;;;;;;9.45;57.83;91178.84;5017471;28;20030;-88
2021/05/20 11:14:11;;;;;;;0.77;0.50;;;;;;;9.46;58.42;91203.78;5016168;28;20025;-87
2021/05/20 11:16:37;;;;;;;1.48;1.25;;;;;;;9.58;59.01;91192.72;5015156;28;20026;-88
2021/05/20 11:19:18;;;;;;;1.55;0.40;;;;;;;9.82;54.68;91199.91;4982225;28;20018;-87
2021/05/20 11:22:03;;;;;;;1.13;0.50;;;;;;;10.08;55.01;91199.78;5014568;28;20089;-87
2021/05/20 11:24:31;;;;;;;1.23;0.40;;;;;;;10.21;55.44;91187.56;5029997;28;20022;-90
2021/05/20 11:26:57;;;;;;;1.08;0.60;;;;;;;9.77;55.32;91184.50;5039800;28;20014;-91
2021/05/20 11:29:25;;;;;;;1.10;0.40;;;;;;;10.12;54.56;91179.06;5004318;28;20017;-88
2021/05/20 11:31:54;;;;;;;1.63;0.50;;;;;;;10.42;56.77;91180.50;4982101;28;20033;-87
2021/05/20 11:34:34;;;;;;;1.17;0.50;;;;;;;10.37;55.92;91175.50;4982214;28;20017;-88
2021/05/20 11:37:00;;;;;;;0.77;0.60;;;;;;;10.07;55.60;91177.41;4984744;28;20053;-88
2021/05/20 11:39:25;;;;;;;1.50;0.52;;;;;;;10.24;56.92;91192.13;4997294;28;20040;-87
2021/05/20 11:41:52;;;;;;;1.00;0.60;;;;;;;10.09;50.56;91172.63;4997181;28;20030;-88
2021/05/20 11:44:19;;;;;;;1.27;0.65;;;;;;;9.84;54.65;91169.16;4981348;28;20026;-87
2021/05/20 11:47:04;;;;;;;0.55;0.43;;;;;;;10.33;53.31;91179.84;4981160;28;20494;-87